Time;durP1;ratioP1;P1;durP2;ratioP2;P2;SDS_P1;SDS_P2;PMS_P1;PMS_P2;Temp;Humidity;BMP_temperature;BMP_pressure;BME280_temperature;BME280_humidity;BME280_pressure;Samples;Min_cycle;Max_cycle;Signal;HPM_P1;HPM_P2
2022/01/15 04:00:43;;;;;;;4.97;4.00;;;3.20;75.00;;;;;;5995573;23;21633;-75
2022/01/15 04:03:09;;;;;;;5.50;4.20;;;3.20;75.00;;;;;;5024755;28;20922;-76
2022/01/15 04:05:36;;;;;;;4.63;3.60;;;3.20;75.30;;;;;;5024694;28;20483;-75
2022/01/15 04:08:03;;;;;;;4.30;3.90;;;3.20;75.70;;;;;;5024706;28;20444;-75
2022/01/15 04:10:30;;;;;;;4.47;3.40;;;3.20;75.70;;;;;;5024328;28;20447;-74
2022/01/15 04:12:57;;;;;;;4.40;3.70;;;3.20;75.90;;;;;;5024919;28;20448;-75
2022/01/15 04:18:00;;;;;;;4.40;3.33;;;3.10;76.10;;;;;;5002818;28;20947;-76
2022/01/15 04:20:26;;;;;;;4.60;3.67;;;3.10;76.50;;;;;;5001355;28;20458;-75
2022/01/15 04:22:54;;;;;;;5.00;4.00;;;3.10;76.50;;;;;;5004397;28;20487;-76
2022/01/15 04:25:22;;;;;;;4.17;3.07;;;3.20;76.20;;;;;;5002113;28;20907;-75
2022/01/15 04:27:49;;;;;;;4.60;3.90;;;3.20;76.10;;;;;;5002026;28;20452;-77
2022/01/15 04:30:21;;;;;;;4.37;3.60;;;3.20;76.10;;;;;;5000740;28;20453;-78
2022/01/15 04:32:47;;;;;;;4.10;3.63;;;3.20;75.90;;;;;;5001452;28;20433;-76
2022/01/15 04:35:16;;;;;;;4.20;3.20;;;3.20;75.80;;;;;;5002025;28;20515;-76
2022/01/15 04:37:45;;;;;;;3.90;3.17;;;3.10;75.90;;;;;;5002155;28;20461;-76
2022/01/15 04:40:13;;;;;;;4.20;3.00;;;3.10;75.40;;;;;;5001593;28;20944;-76
2022/01/15 04:42:40;;;;;;;7.27;3.70;;;3.10;75.20;;;;;;5002061;28;20452;-76
2022/01/15 04:45:08;;;;;;;4.60;3.50;;;3.10;75.00;;;;;;5001973;28;20808;-77
2022/01/15 04:47:35;;;;;;;4.67;3.77;;;3.00;75.60;;;;;;5001196;28;20979;-75
2022/01/15 04:50:02;;;;;;;4.57;3.30;;;2.90;75.50;;;;;;5001690;28;20536;-75
2022/01/15 04:52:33;;;;;;;4.10;2.80;;;2.90;75.20;;;;;;5002923;28;20437;-75
2022/01/15 04:55:00;;;;;;;4.80;3.90;;;2.90;75.10;;;;;;5001795;28;20444;-75
2022/01/15 04:57:27;;;;;;;4.10;3.10;;;3.00;74.90;;;;;;5001129;28;20468;-75
2022/01/15 04:59:54;;;;;;;4.57;3.83;;;3.00;74.90;;;;;;5000596;28;20435;-75
2022/01/15 05:02:20;;;;;;;4.50;3.73;;;2.90;74.90;;;;;;4999180;28;20460;-76
2022/01/15 05:04:47;;;;;;;6.47;3.47;;;2.90;75.20;;;;;;4997736;28;20457;-76
2022/01/15 05:07:14;;;;;;;4.20;3.00;;;2.90;75.20;;;;;;4997580;28;20538;-75
2022/01/15 05:09:43;;;;;;;3.90;3.00;;;2.90;75.30;;;;;;4997588;28;20831;-76
2022/01/15 05:12:21;;;;;;;4.83;4.17;;;2.80;75.50;;;;;;4997428;28;20503;-76
2022/01/15 05:14:47;;;;;;;4.60;4.07;;;2.90;75.20;;;;;;4998030;28;20520;-76
2022/01/15 05:17:14;;;;;;;4.40;3.10;;;2.80;75.10;;;;;;4997061;28;21123;-76
2022/01/15 05:19:41;;;;;;;3.90;3.30;;;2.70;75.50;;;;;;4997696;28;20865;-76
2022/01/15 05:22:07;;;;;;;4.30;3.60;;;2.70;76.00;;;;;;4998267;28;20457;-76
2022/01/15 05:24:34;;;;;;;3.63;2.70;;;2.70;76.00;;;;;;4997277;28;20452;-75
2022/01/15 05:27:02;;;;;;;4.10;3.37;;;2.80;75.60;;;;;;4996992;28;20488;-76
2022/01/15 05:29:29;;;;;;;3.97;2.97;;;2.90;75.40;;;;;;4997012;28;20453;-76
2022/01/15 05:31:56;;;;;;;4.00;3.27;;;2.80;75.80;;;;;;4996865;28;20500;-76
2022/01/15 05:34:23;;;;;;;3.80;2.80;;;2.90;75.60;;;;;;4996332;28;20457;-76
2022/01/15 05:36:49;;;;;;;4.37;3.60;;;2.90;75.30;;;;;;4996993;28;20469;-76
2022/01/15 05:39:16;;;;;;;4.50;3.77;;;2.90;75.30;;;;;;4996642;28;20507;-75
2022/01/15 05:41:43;;;;;;;3.93;3.07;;;2.90;75.30;;;;;;4996330;28;20507;-76
2022/01/15 05:44:11;;;;;;;4.17;3.40;;;2.90;75.20;;;;;;4996628;28;20504;-76
2022/01/15 05:46:38;;;;;;;4.87;3.70;;;2.90;75.10;;;;;;4996855;28;20480;-76
2022/01/15 05:49:05;;;;;;;4.83;4.13;;;2.90;75.30;;;;;;4996540;28;20449;-76
2022/01/15 05:51:32;;;;;;;4.80;3.87;;;2.90;75.40;;;;;;4996476;28;20448;-76
2022/01/15 05:54:00;;;;;;;4.40;3.33;;;2.90;75.40;;;;;;4996223;28;20508;-76
2022/01/15 05:56:27;;;;;;;5.10;3.67;;;2.90;75.40;;;;;;4996316;28;20469;-76
2022/01/15 05:58:54;;;;;;;4.37;3.63;;;2.90;75.30;;;;;;4995954;28;20500;-76
2022/01/15 06:01:23;;;;;;;4.83;3.83;;;2.80;75.30;;;;;;4996267;28;20461;-76
2022/01/15 06:03:50;;;;;;;4.37;3.50;;;2.80;75.10;;;;;;4996133;28;20449;-76
2022/01/15 06:06:17;;;;;;;4.63;3.80;;;2.80;75.00;;;;;;4996219;28;20485;-76
2022/01/15 06:08:43;;;;;;;4.03;3.30;;;2.70;74.90;;;;;;4995617;28;20457;-76
2022/01/15 06:11:11;;;;;;;5.07;3.50;;;2.70;75.00;;;;;;4995795;28;20937;-76
2022/01/15 06:13:38;;;;;;;5.07;3.57;;;2.70;74.60;;;;;;4995581;28;20457;-76
2022/01/15 06:16:05;;;;;;;4.27;3.50;;;2.60;74.90;;;;;;4995884;28;20489;-76
2022/01/15 06:18:33;;;;;;;4.00;3.17;;;2.60;75.60;;;;;;4995751;28;20488;-76
2022/01/15 06:21:00;;;;;;;4.17;3.53;;;2.60;75.40;;;;;;4995811;28;20445;-76
2022/01/15 06:23:26;;;;;;;6.80;3.80;;;2.60;75.80;;;;;;4995626;28;20445;-76
2022/01/15 06:25:53;;;;;;;4.97;3.70;;;2.50;76.10;;;;;;4995947;28;20858;-76
2022/01/15 06:28:20;;;;;;;4.43;3.40;;;2.50;76.10;;;;;;4995281;28;20477;-76
2022/01/15 06:30:46;;;;;;;5.43;4.37;;;2.50;76.10;;;;;;4995552;28;20487;-76
2022/01/15 06:33:13;;;;;;;4.17;3.20;;;2.60;76.10;;;;;;4995317;28;20830;-76
2022/01/15 06:35:41;;;;;;;4.87;4.03;;;2.60;75.60;;;;;;4995402;28;20507;-76
2022/01/15 06:38:08;;;;;;;4.83;3.90;;;2.60;76.00;;;;;;4995608;28;20441;-76
2022/01/15 06:40:35;;;;;;;3.77;3.03;;;2.50;76.30;;;;;;4995918;28;20528;-76
2022/01/15 06:43:03;;;;;;;5.07;3.50;;;2.60;76.30;;;;;;4996092;28;20449;-76
2022/01/15 06:45:30;;;;;;;4.03;3.27;;;2.70;75.90;;;;;;4995205;28;20468;-76
2022/01/15 06:47:57;;;;;;;4.37;3.83;;;2.70;75.80;;;;;;4995267;28;20488;-76
2022/01/15 06:50:25;;;;;;;4.00;3.27;;;2.70;75.60;;;;;;4995647;28;20453;-76
2022/01/15 06:52:53;;;;;;;4.87;3.70;;;2.70;75.60;;;;;;4995473;28;20814;-76
2022/01/15 06:55:20;;;;;;;4.20;3.07;;;2.70;75.40;;;;;;4995078;28;20449;-76
2022/01/15 06:57:47;;;;;;;4.50;3.80;;;2.80;75.10;;;;;;4995439;28;20531;-76
2022/01/15 07:00:16;;;;;;;4.93;3.10;;;2.70;74.80;;;;;;4994850;28;20864;-76
2022/01/15 07:02:43;;;;;;;4.23;3.33;;;2.70;75.30;;;;;;4995072;28;20453;-76
2022/01/15 07:05:10;;;;;;;4.23;3.30;;;2.60;75.40;;;;;;4996359;28;20503;-76
2022/01/15 07:07:43;;;;;;;6.37;4.03;;;2.60;75.60;;;;;;4996034;28;20508;-76
2022/01/15 07:10:12;;;;;;;4.70;3.50;;;2.60;75.50;;;;;;4995446;28;20438;-76
2022/01/15 07:12:39;;;;;;;4.20;3.27;;;2.70;75.20;;;;;;4999195;28;20449;-77
2022/01/15 07:15:06;;;;;;;4.17;3.47;;;2.70;75.10;;;;;;4999327;28;20429;-76
2022/01/15 07:17:32;;;;;;;3.97;2.90;;;2.60;75.30;;;;;;4999253;28;20493;-76
2022/01/15 07:19:59;;;;;;;4.13;3.37;;;2.60;75.20;;;;;;4999710;28;20475;-76
2022/01/15 07:22:26;;;;;;;5.20;3.70;;;2.60;75.30;;;;;;4997129;28;21007;-76
2022/01/15 07:24:52;;;;;;;4.10;3.00;;;2.60;75.40;;;;;;4994630;28;20828;-76
2022/01/15 07:27:21;;;;;;;5.20;3.50;;;2.60;75.20;;;;;;4994461;28;20492;-76
2022/01/15 07:29:47;;;;;;;5.40;4.43;;;2.60;75.50;;;;;;4995252;28;20453;-76
2022/01/15 07:32:14;;;;;;;4.70;3.57;;;2.70;75.40;;;;;;4995209;28;20445;-76
2022/01/15 07:34:41;;;;;;;4.13;3.23;;;2.70;75.20;;;;;;4995213;28;20456;-76
2022/01/15 07:37:07;;;;;;;4.30;3.20;;;2.70;75.50;;;;;;4995053;28;20547;-76
2022/01/15 07:39:35;;;;;;;4.30;3.20;;;2.80;75.40;;;;;;4994939;28;20452;-76
2022/01/15 07:42:02;;;;;;;4.10;3.23;;;2.90;75.50;;;;;;4995116;28;20445;-76
2022/01/15 07:44:30;;;;;;;4.10;3.40;;;3.20;76.20;;;;;;4994765;28;20512;-76
2022/01/15 07:46:57;;;;;;;4.63;3.20;;;4.00;74.60;;;;;;4994938;28;20492;-76
2022/01/15 07:49:24;;;;;;;4.37;3.17;;;4.60;71.40;;;;;;4994769;28;20484;-76
2022/01/15 07:51:50;;;;;;;4.43;3.27;;;5.20;70.00;;;;;;4994399;28;20438;-76
2022/01/15 07:54:17;;;;;;;4.30;3.23;;;5.50;67.80;;;;;;4994694;28;20507;-76
2022/01/15 07:56:44;;;;;;;3.83;2.93;;;5.70;67.00;;;;;;4994336;28;20469;-76
2022/01/15 07:59:10;;;;;;;5.00;3.40;;;5.70;66.70;;;;;;4994043;28;20933;-76
2022/01/15 08:01:38;;;;;;;4.50;3.10;;;5.60;66.70;;;;;;4994222;28;20507;-77
2022/01/15 08:04:05;;;;;;;4.10;3.10;;;5.60;66.50;;;;;;4993850;28;20458;-77
2022/01/15 08:06:32;;;;;;;3.87;3.30;;;5.50;66.80;;;;;;4994061;28;20473;-76
2022/01/15 08:08:59;;;;;;;4.30;3.10;;;5.50;67.20;;;;;;4993436;28;21031;-77
2022/01/15 08:11:25;;;;;;;4.47;3.90;;;5.50;67.60;;;;;;4993960;28;20869;-76
2022/01/15 08:13:52;;;;;;;4.33;3.20;;;5.50;68.10;;;;;;4994075;28;20511;-77
2022/01/15 08:16:19;;;;;;;4.70;3.50;;;5.50;68.30;;;;;;4993887;28;20580;-76
2022/01/15 08:18:47;;;;;;;6.33;3.53;;;5.60;68.30;;;;;;4993740;28;20854;-76
2022/01/15 08:21:13;;;;;;;4.67;3.27;;;5.80;68.70;;;;;;4994145;28;20503;-76
2022/01/15 08:23:40;;;;;;;5.33;4.57;;;6.10;68.50;;;;;;4994200;28;20457;-76
2022/01/15 08:26:07;;;;;;;4.23;3.67;;;6.30;68.00;;;;;;4994255;28;20529;-76
2022/01/15 08:28:34;;;;;;;4.60;3.83;;;6.40;68.00;;;;;;4994211;28;20907;-76
2022/01/15 08:31:01;;;;;;;4.57;3.83;;;6.70;67.40;;;;;;4994229;28;20453;-76
2022/01/15 08:33:27;;;;;;;5.53;4.37;;;7.10;66.50;;;;;;4994476;28;20500;-77
2022/01/15 08:35:55;;;;;;;4.17;3.17;;;7.40;65.60;;;;;;4994762;28;20504;-77
2022/01/15 08:38:22;;;;;;;4.53;3.27;;;7.50;65.10;;;;;;4997575;28;20448;-77
2022/01/15 08:40:49;;;;;;;3.90;3.00;;;7.60;64.90;;;;;;4998048;28;20507;-76
2022/01/15 08:43:16;;;;;;;4.17;3.17;;;7.90;64.40;;;;;;4997605;28;20927;-77
2022/01/15 08:45:43;;;;;;;4.10;3.00;;;8.40;64.10;;;;;;4997989;28;20481;-76
2022/01/15 08:48:10;;;;;;;4.03;2.80;;;9.20;62.90;;;;;;4998289;28;20568;-75
2022/01/15 08:50:37;;;;;;;4.23;3.60;;;9.80;60.70;;;;;;4997261;28;20820;-75
2022/01/15 08:53:06;;;;;;;4.27;3.50;;;10.30;59.60;;;;;;4996829;28;20456;-75
2022/01/15 08:55:33;;;;;;;4.27;3.43;;;10.30;58.50;;;;;;4996789;28;20532;-78
2022/01/15 08:58:00;;;;;;;5.47;3.50;;;10.20;58.50;;;;;;4996714;28;20829;-77
2022/01/15 09:00:28;;;;;;;4.40;4.00;;;9.90;59.30;;;;;;4996657;28;20877;-75
2022/01/15 09:02:55;;;;;;;3.70;3.07;;;9.50;60.30;;;;;;4996737;28;20453;-74
2022/01/15 09:05:22;;;;;;;4.27;3.80;;;9.20;61.50;;;;;;4996850;28;20476;-73
2022/01/15 09:07:50;;;;;;;3.80;2.97;;;8.90;62.80;;;;;;4998921;28;20484;-74
2022/01/15 09:10:18;;;;;;;3.90;3.10;;;8.80;63.10;;;;;;5004383;28;20445;-73
2022/01/15 09:12:45;;;;;;;3.80;2.97;;;8.50;63.20;;;;;;5005882;28;20952;-73
2022/01/15 09:15:14;;;;;;;3.67;2.53;;;8.50;64.40;;;;;;5012205;28;20438;-74
2022/01/15 09:17:41;;;;;;;4.40;3.53;;;7.80;64.70;;;;;;5020325;28;20479;-73
2022/01/15 09:20:08;;;;;;;4.57;3.00;;;7.60;66.10;;;;;;5008911;28;20453;-76
2022/01/15 09:22:35;;;;;;;3.70;2.97;;;7.70;66.30;;;;;;5006971;28;20949;-75
2022/01/15 09:25:02;;;;;;;3.60;2.80;;;7.30;66.50;;;;;;5002676;28;20454;-75
2022/01/15 09:30:15;;;;;;;4.53;3.00;;;6.70;68.10;;;;;;5002434;28;20428;-76
2022/01/15 09:32:44;;;;;;;3.77;2.77;;;6.50;69.00;;;;;;4998666;28;20453;-76
2022/01/15 09:35:12;;;;;;;4.13;3.03;;;6.30;70.50;;;;;;4998388;28;20449;-76
2022/01/15 09:37:38;;;;;;;4.53;2.83;;;6.30;70.30;;;;;;5004622;28;20469;-77
2022/01/15 09:40:07;;;;;;;4.17;3.30;;;6.30;70.10;;;;;;5008678;28;20445;-76
2022/01/15 09:42:35;;;;;;;3.60;2.60;;;6.30;70.80;;;;;;5006666;28;20452;-76
2022/01/15 09:45:04;;;;;;;3.50;2.60;;;6.20;70.80;;;;;;4997104;28;20450;-72
2022/01/15 09:47:32;;;;;;;4.47;3.60;;;6.10;74.70;;;;;;4995581;28;20485;-71
2022/01/15 09:49:59;;;;;;;4.77;3.50;;;5.80;74.20;;;;;;4994791;28;20503;-73
2022/01/15 09:52:26;;;;;;;4.50;4.00;;;5.80;74.40;;;;;;5000293;28;20504;-77
2022/01/15 09:54:53;;;;;;;4.77;4.00;;;5.70;74.00;;;;;;4999398;28;20460;-77
2022/01/15 09:57:20;;;;;;;4.60;3.80;;;5.60;73.90;;;;;;4999534;28;21007;-77
2022/01/15 09:59:48;;;;;;;4.27;3.27;;;5.50;74.00;;;;;;5001916;28;20445;-76
2022/01/15 10:02:16;;;;;;;4.33;3.47;;;5.30;74.20;;;;;;4998409;28;20453;-77
2022/01/15 10:04:43;;;;;;;4.00;3.33;;;5.30;74.10;;;;;;4997333;28;20503;-78
2022/01/15 10:07:12;;;;;;;3.93;3.03;;;5.20;74.90;;;;;;4996809;28;20476;-74
2022/01/15 10:09:41;;;;;;;4.20;3.13;;;5.30;75.10;;;;;;4997436;28;20453;-77
2022/01/15 10:12:09;;;;;;;4.20;3.50;;;5.20;74.90;;;;;;4997680;28;20548;-76
2022/01/15 10:14:37;;;;;;;5.57;4.97;;;5.20;75.30;;;;;;4998646;28;20449;-86
2022/01/15 10:17:21;;;;;;;4.27;3.57;;;5.20;75.90;;;;;;5030812;23;20577;-73
2022/01/15 10:19:49;;;;;;;4.27;3.60;;;5.30;75.00;;;;;;5014268;28;20425;-71
2022/01/15 10:22:18;;;;;;;4.70;4.20;;;5.40;74.20;;;;;;5014087;28;20551;-74
2022/01/15 10:24:53;;;;;;;4.67;3.93;;;5.70;76.20;;;;;;5014730;28;20448;-73
2022/01/15 10:27:31;;;;;;;5.23;4.73;;;5.80;74.90;;;;;;5015903;28;20477;-74
2022/01/15 10:30:02;;;;;;;4.83;4.30;;;5.80;74.90;;;;;;5013950;28;20837;-74
2022/01/15 10:32:32;;;;;;;6.83;4.87;;;5.80;75.00;;;;;;5014258;28;20437;-72
2022/01/15 10:35:00;;;;;;;5.20;4.70;;;6.10;74.40;;;;;;5013815;28;20865;-74
2022/01/15 10:37:34;;;;;;;4.83;4.33;;;6.60;72.80;;;;;;5013750;28;20464;-74
2022/01/15 10:40:04;;;;;;;4.87;4.37;;;7.00;70.10;;;;;;5013435;28;20538;-74
2022/01/15 10:42:31;;;;;;;5.93;5.20;;;7.00;70.20;;;;;;5013758;28;20448;-74
2022/01/15 10:45:00;;;;;;;4.90;4.40;;;6.80;70.90;;;;;;5013717;28;20506;-74
2022/01/15 10:47:28;;;;;;;4.90;4.40;;;6.30;71.30;;;;;;5014156;28;20472;-74
2022/01/15 10:50:02;;;;;;;4.93;4.40;;;6.00;73.70;;;;;;5014013;28;20455;-74
2022/01/15 10:52:29;;;;;;;5.23;4.73;;;5.80;74.40;;;;;;5013718;28;20437;-71
2022/01/15 10:55:05;;;;;;;5.73;4.37;;;5.60;74.90;;;;;;5013749;28;20448;-74
2022/01/15 10:57:33;;;;;;;5.50;4.57;;;5.60;74.50;;;;;;5013286;28;20471;-74
2022/01/15 11:00:05;;;;;;;6.43;5.27;;;5.50;74.50;;;;;;5013309;28;20448;-75
2022/01/15 11:02:32;;;;;;;5.27;4.77;;;5.70;75.00;;;;;;5013674;28;20441;-74
2022/01/15 11:05:00;;;;;;;6.77;4.67;;;5.60;73.80;;;;;;5013113;28;20506;-74
2022/01/15 11:07:27;;;;;;;4.73;4.23;;;5.70;73.70;;;;;;5013318;28;20463;-72
2022/01/15 11:09:54;;;;;;;4.33;3.93;;;6.00;72.60;;;;;;5013314;28;20448;-74
2022/01/15 11:12:27;;;;;;;4.80;4.30;;;6.50;70.90;;;;;;5013618;28;20452;-75
2022/01/15 11:14:54;;;;;;;3.67;3.10;;;7.00;69.60;;;;;;5013551;28;20436;-76
2022/01/15 11:17:20;;;;;;;4.10;3.50;;;7.60;67.00;;;;;;4977502;28;1039420;-75
2022/01/15 11:19:53;;;;;;;4.63;3.40;;;7.70;65.60;;;;;;5014053;28;20197;-75
2022/01/15 11:22:22;;;;;;;3.83;3.03;;;7.20;66.10;;;;;;5014277;28;20436;-75
2022/01/15 11:24:50;;;;;;;4.10;3.40;;;7.10;66.90;;;;;;5013971;28;20449;-73
2022/01/15 11:27:17;;;;;;;5.40;4.60;;;6.80;68.00;;;;;;5013818;28;20472;-77
2022/01/15 11:29:46;;;;;;;4.70;4.20;;;6.30;69.80;;;;;;5013830;28;20484;-76
2022/01/15 11:32:13;;;;;;;5.90;4.33;;;6.00;71.40;;;;;;5013798;28;20531;-76
2022/01/15 11:34:41;;;;;;;5.97;5.37;;;5.80;72.30;;;;;;5013803;28;20510;-76
2022/01/15 11:37:16;;;;;;;4.87;4.10;;;5.90;73.20;;;;;;5013665;28;20532;-75
2022/01/15 11:39:44;;;;;;;4.97;4.40;;;5.80;73.50;;;;;;5013448;28;20908;-75
2022/01/15 11:42:26;;;;;;;5.90;5.30;;;5.70;73.40;;;;;;5013706;28;20463;-75
2022/01/15 11:44:53;;;;;;;5.80;5.20;;;5.60;73.60;;;;;;5013693;28;20440;-75
2022/01/15 11:47:23;;;;;;;7.40;6.70;;;5.50;72.70;;;;;;5013773;28;20468;-76
2022/01/15 11:49:51;;;;;;;7.60;6.63;;;5.40;73.50;;;;;;5013740;28;20464;-70
2022/01/15 11:52:41;;;;;;;7.57;6.87;;;5.40;78.80;;;;;;5013811;28;20455;-74
2022/01/15 11:55:22;;;;;;;6.57;5.97;;;5.80;74.90;;;;;;5013618;28;20812;-76
2022/01/15 11:57:58;;;;;;;6.53;5.93;;;5.60;73.20;;;;;;5013524;28;20566;-76
2022/01/15 12:00:42;;;;;;;6.00;5.30;;;5.60;73.20;;;;;;5013167;28;20908;-76
2022/01/15 12:03:12;;;;;;;6.70;6.10;;;5.60;73.40;;;;;;5013463;28;20428;-76
2022/01/15 12:05:41;;;;;;;6.17;5.57;;;5.80;73.70;;;;;;5013513;28;20845;-76
2022/01/15 12:08:38;;;;;;;6.33;5.20;;;5.80;73.30;;;;;;5013447;28;20973;-77
2022/01/15 12:11:07;;;;;;;5.80;5.23;;;6.40;71.70;;;;;;5013590;28;20435;-77
2022/01/15 12:13:48;;;;;;;5.80;5.20;;;6.80;70.00;;;;;;5017304;28;20451;-76
2022/01/15 12:16:29;;;;;;;6.03;5.20;;;7.00;68.80;;;;;;5017196;28;20476;-76
2022/01/15 12:18:59;;;;;;;5.60;4.93;;;7.00;68.20;;;;;;5017049;28;20898;-77
2022/01/15 12:21:56;;;;;;;5.70;5.07;;;7.50;67.00;;;;;;5018333;28;20447;-77
2022/01/15 12:24:40;;;;;;;5.00;4.50;;;8.80;64.50;;;;;;4976702;28;20446;-77
2022/01/15 12:27:11;;;;;;;4.30;3.70;;;11.10;58.90;;;;;;4994524;28;20574;-77
2022/01/15 12:29:38;;;;;;;4.70;4.20;;;13.80;51.90;;;;;;5017112;28;20475;-77
2022/01/15 12:32:05;;;;;;;5.43;4.50;;;16.20;46.50;;;;;;5017064;28;20502;-77
2022/01/15 12:34:32;;;;;;;4.33;3.93;;;18.30;43.50;;;;;;5016762;28;20455;-77
2022/01/15 12:36:59;;;;;;;4.87;4.37;;;20.70;40.40;;;;;;5016911;28;20468;-77
2022/01/15 12:39:33;;;;;;;5.20;4.70;;;23.00;37.00;;;;;;5016924;28;20452;-77
2022/01/15 12:42:00;;;;;;;5.20;4.03;;;24.50;34.60;;;;;;5016525;28;20857;-77
2022/01/15 12:44:28;;;;;;;4.80;4.27;;;25.80;32.30;;;;;;5016796;28;20448;-77
2022/01/15 12:46:57;;;;;;;4.57;3.80;;;26.70;32.00;;;;;;5016738;28;20551;-77
2022/01/15 12:49:36;;;;;;;4.97;3.87;;;26.80;31.30;;;;;;5016645;28;20488;-77
2022/01/15 12:52:09;;;;;;;4.57;4.10;;;27.50;29.80;;;;;;5016770;28;20532;-77
2022/01/15 12:54:36;;;;;;;4.60;4.03;;;26.50;30.50;;;;;;5016411;28;20904;-77
2022/01/15 12:57:03;;;;;;;4.57;4.07;;;26.80;31.40;;;;;;5016255;28;21041;-77
2022/01/15 12:59:33;;;;;;;4.80;4.30;;;28.10;30.00;;;;;;5016581;28;20440;-77
2022/01/15 13:02:00;;;;;;;4.60;4.17;;;28.40;28.20;;;;;;5016526;28;20436;-77
2022/01/15 13:04:27;;;;;;;4.27;3.63;;;28.20;29.80;;;;;;5016132;28;20870;-77
2022/01/15 13:06:59;;;;;;;5.23;4.53;;;28.20;28.60;;;;;;5016035;28;20987;-77
2022/01/15 13:09:40;;;;;;;4.40;3.97;;;28.60;29.10;;;;;;5016383;28;20519;-77
2022/01/15 13:12:11;;;;;;;4.73;4.23;;;27.60;29.30;;;;;;5016416;28;20498;-77
2022/01/15 13:14:40;;;;;;;4.70;4.20;;;27.30;29.60;;;;;;5016515;28;20438;-77
2022/01/15 13:17:20;;;;;;;4.30;3.90;;;26.90;30.00;;;;;;5015565;28;20541;-77
2022/01/15 13:19:47;;;;;;;4.80;4.30;;;27.00;30.60;;;;;;5015930;28;20519;-77
2022/01/15 13:22:14;;;;;;;4.60;3.90;;;27.60;29.90;;;;;;5016250;28;20479;-78
2022/01/15 13:24:42;;;;;;;4.50;4.00;;;27.70;29.70;;;;;;5014850;28;20502;-77
2022/01/15 13:27:08;;;;;;;4.83;4.37;;;27.70;29.50;;;;;;5015998;28;20479;-77
2022/01/15 13:29:42;;;;;;;4.30;3.90;;;27.70;29.50;;;;;;5015622;28;20519;-78
2022/01/15 13:32:09;;;;;;;4.87;4.37;;;28.20;29.80;;;;;;5017028;28;20451;-77
2022/01/15 13:34:36;;;;;;;4.30;3.73;;;29.10;29.10;;;;;;5015563;28;20444;-78
2022/01/15 13:37:11;;;;;;;4.57;4.17;;;29.50;28.40;;;;;;5015794;28;20530;-77
2022/01/15 13:39:39;;;;;;;4.83;4.33;;;30.00;27.50;;;;;;5015758;28;20447;-77
2022/01/15 13:42:19;;;;;;;5.23;4.00;;;29.90;27.90;;;;;;5015736;28;20448;-77
2022/01/15 13:44:47;;;;;;;4.50;4.10;;;30.60;26.90;;;;;;5015721;28;20428;-78
2022/01/15 13:47:15;;;;;;;4.60;4.10;;;30.90;27.00;;;;;;5015671;28;20468;-78
2022/01/15 13:55:14;;;;;;;4.97;4.17;;;31.90;25.90;;;;;;5015757;28;20404;-78
2022/01/15 13:57:41;;;;;;;4.43;4.03;;;32.20;25.60;;;;;;5015129;28;21026;-78
2022/01/15 14:00:12;;;;;;;4.57;3.80;;;32.20;25.50;;;;;;5015168;28;20820;-77
2022/01/15 14:02:40;;;;;;;4.43;3.57;;;32.30;25.50;;;;;;5015502;28;20491;-78
2022/01/15 14:05:15;;;;;;;4.50;4.10;;;32.50;25.10;;;;;;5015639;28;20452;-78
2022/01/15 14:07:44;;;;;;;5.43;3.97;;;32.50;24.90;;;;;;5015573;28;20482;-78
2022/01/15 14:10:12;;;;;;;4.10;3.70;;;32.30;25.10;;;;;;5015442;28;20901;-78
2022/01/15 14:12:39;;;;;;;4.37;3.97;;;32.00;25.30;;;;;;5015992;28;20444;-78
2022/01/15 14:15:13;;;;;;;4.93;4.43;;;31.60;25.50;;;;;;5015443;28;20444;-78
2022/01/15 14:17:44;;;;;;;4.53;4.03;;;31.40;25.50;;;;;;5015909;28;20598;-79
2022/01/15 14:20:40;;;;;;;4.67;4.17;;;30.80;25.90;;;;;;5015349;28;20441;-79
2022/01/15 14:23:09;;;;;;;4.50;4.10;;;30.70;26.20;;;;;;5014966;28;20920;-78
2022/01/15 14:25:38;;;;;;;4.43;3.90;;;30.10;26.40;;;;;;5015361;28;20547;-78
2022/01/15 14:28:07;;;;;;;4.43;3.97;;;29.20;27.20;;;;;;5014844;28;20554;-78
2022/01/15 14:30:35;;;;;;;6.93;4.30;;;28.00;28.00;;;;;;5014947;28;20857;-78
2022/01/15 14:33:04;;;;;;;4.87;4.43;;;26.80;29.10;;;;;;5015494;28;20440;-78
2022/01/15 14:35:32;;;;;;;4.80;4.33;;;25.50;30.60;;;;;;5014255;28;20944;-78
2022/01/15 14:37:59;;;;;;;4.80;4.03;;;24.50;32.00;;;;;;5014777;28;20468;-78
2022/01/15 14:40:26;;;;;;;4.73;4.17;;;23.50;33.10;;;;;;5014736;28;20494;-78
2022/01/15 14:42:53;;;;;;;5.27;4.77;;;22.70;34.00;;;;;;5014766;28;20444;-78
2022/01/15 14:45:20;;;;;;;5.17;4.63;;;21.80;35.20;;;;;;5014839;28;20452;-78
2022/01/15 14:47:47;;;;;;;5.10;4.60;;;20.80;36.40;;;;;;5014221;28;21007;-78
2022/01/15 14:50:17;;;;;;;5.10;4.60;;;19.70;37.50;;;;;;5014418;28;20487;-77
2022/01/15 14:52:44;;;;;;;5.30;4.80;;;18.50;39.40;;;;;;5014559;28;20548;-77
2022/01/15 14:55:11;;;;;;;5.87;5.27;;;17.30;41.20;;;;;;5014091;28;20932;-77
2022/01/15 14:57:38;;;;;;;6.23;5.63;;;16.40;42.90;;;;;;5014311;28;20476;-77
2022/01/15 15:00:07;;;;;;;5.33;4.83;;;15.40;44.20;;;;;;5014375;28;20499;-77
2022/01/15 15:02:37;;;;;;;5.30;4.80;;;14.60;45.90;;;;;;5014525;28;20471;-77
2022/01/15 15:05:04;;;;;;;5.70;5.03;;;13.70;47.80;;;;;;5014389;28;20948;-77
2022/01/15 15:07:32;;;;;;;6.07;5.40;;;13.00;49.20;;;;;;5013729;28;20467;-77
2022/01/15 15:09:59;;;;;;;5.03;4.53;;;12.50;50.70;;;;;;5013806;28;20526;-76
2022/01/15 15:12:34;;;;;;;5.30;4.80;;;11.90;52.10;;;;;;5014116;28;20444;-76
2022/01/15 15:15:01;;;;;;;5.60;5.03;;;11.50;53.10;;;;;;5014385;28;20467;-78
2022/01/15 15:17:28;;;;;;;5.07;4.40;;;11.10;54.20;;;;;;5014321;28;20483;-78
2022/01/15 15:19:54;;;;;;;4.90;4.40;;;10.70;55.30;;;;;;5014197;28;20451;-77
2022/01/15 15:22:22;;;;;;;5.27;4.77;;;10.30;56.30;;;;;;5014369;28;20483;-77
2022/01/15 15:24:50;;;;;;;5.37;4.87;;;10.10;57.10;;;;;;5013943;28;20534;-77
2022/01/15 15:27:17;;;;;;;6.37;5.60;;;9.80;58.20;;;;;;5013898;28;20500;-77
2022/01/15 15:29:43;;;;;;;7.87;5.00;;;9.60;58.90;;;;;;5013780;28;20484;-77
2022/01/15 15:32:11;;;;;;;8.37;7.57;;;9.50;59.20;;;;;;5013806;28;20506;-77
2022/01/15 15:34:37;;;;;;;8.10;7.37;;;9.30;59.90;;;;;;5013782;28;20444;-76
2022/01/15 15:37:04;;;;;;;7.43;6.73;;;9.10;60.50;;;;;;5013715;28;20470;-76
2022/01/15 15:39:31;;;;;;;7.00;6.20;;;9.00;60.90;;;;;;5013456;28;20498;-76
2022/01/15 15:42:01;;;;;;;6.60;5.93;;;8.90;61.20;;;;;;5013685;28;20444;-77
2022/01/15 15:44:27;;;;;;;5.90;5.30;;;8.70;61.80;;;;;;5013637;28;20507;-77
2022/01/15 15:46:54;;;;;;;6.40;5.80;;;8.60;62.20;;;;;;5012862;28;20468;-76
2022/01/15 15:49:21;;;;;;;5.57;5.03;;;8.50;62.70;;;;;;5013657;28;20480;-76
2022/01/15 15:51:47;;;;;;;5.93;5.33;;;8.40;62.80;;;;;;5013627;28;20514;-77
2022/01/15 15:54:14;;;;;;;5.70;5.20;;;8.40;63.00;;;;;;5013578;28;20452;-77
2022/01/15 15:56:41;;;;;;;6.03;5.27;;;8.30;63.30;;;;;;5013522;28;20471;-76
2022/01/15 15:59:09;;;;;;;6.10;5.20;;;8.20;63.60;;;;;;5013600;28;20444;-76
2022/01/15 16:01:35;;;;;;;5.60;4.97;;;8.10;64.00;;;;;;5013488;28;20515;-77
2022/01/15 16:04:02;;;;;;;5.47;4.97;;;8.10;64.30;;;;;;5013676;28;20451;-77
2022/01/15 16:06:29;;;;;;;6.50;5.90;;;8.00;64.60;;;;;;5013492;28;20472;-77
2022/01/15 16:08:55;;;;;;;6.90;6.20;;;7.90;64.70;;;;;;5013386;28;20511;-77
2022/01/15 16:11:22;;;;;;;6.30;5.70;;;7.90;64.80;;;;;;5013068;28;21003;-77
2022/01/15 16:13:49;;;;;;;6.03;5.47;;;7.80;64.90;;;;;;5013416;28;20861;-77
2022/01/15 16:18:52;;;;;;;6.60;6.00;;;7.60;65.80;;;;;;5011912;26;20822;-76
2022/01/15 16:21:19;;;;;;;7.10;6.40;;;7.60;66.00;;;;;;5013381;28;20864;-76
2022/01/15 16:23:46;;;;;;;7.70;7.07;;;7.50;66.20;;;;;;5013230;28;20445;-76
2022/01/15 16:26:12;;;;;;;7.07;6.37;;;7.40;66.40;;;;;;5013385;28;20448;-77
2022/01/15 16:28:40;;;;;;;7.50;6.73;;;7.30;66.60;;;;;;5032728;28;20455;-76
2022/01/15 16:31:07;;;;;;;6.67;5.97;;;7.20;67.10;;;;;;5033284;28;20483;-76
2022/01/15 16:33:34;;;;;;;7.10;6.50;;;7.10;67.40;;;;;;5033174;28;20447;-77
2022/01/15 16:36:02;;;;;;;8.20;7.40;;;7.00;67.60;;;;;;5033098;28;20450;-76
2022/01/15 16:38:31;;;;;;;7.20;6.50;;;7.00;67.50;;;;;;5032981;28;20466;-76
2022/01/15 16:40:58;;;;;;;6.67;5.60;;;7.00;67.70;;;;;;5032983;28;20446;-77
2022/01/15 16:43:24;;;;;;;7.27;6.57;;;7.00;67.80;;;;;;5033110;28;20505;-77
2022/01/15 16:45:51;;;;;;;7.07;6.37;;;6.90;68.00;;;;;;5033083;28;20447;-77
2022/01/15 16:48:18;;;;;;;7.50;6.60;;;6.80;68.00;;;;;;5033526;28;20525;-76
2022/01/15 16:50:44;;;;;;;7.00;6.40;;;6.70;68.30;;;;;;5032874;28;20498;-77
2022/01/15 16:53:12;;;;;;;7.50;6.80;;;6.70;68.30;;;;;;5033104;28;20455;-77
2022/01/15 16:55:39;;;;;;;8.60;7.80;;;6.70;68.30;;;;;;5032993;28;20497;-77
2022/01/15 16:58:06;;;;;;;7.13;6.43;;;6.60;68.50;;;;;;5034194;28;20593;-77
2022/01/15 17:00:33;;;;;;;7.57;6.87;;;6.60;68.70;;;;;;5036165;28;20865;-77
2022/01/15 17:02:59;;;;;;;7.20;6.60;;;6.60;68.80;;;;;;5036140;28;20957;-77
2022/01/15 17:05:26;;;;;;;6.00;5.50;;;6.50;68.90;;;;;;5036315;28;20862;-77
2022/01/15 17:07:53;;;;;;;6.67;6.07;;;6.40;69.50;;;;;;5036324;28;20474;-77
2022/01/15 17:10:21;;;;;;;7.10;6.40;;;6.40;69.50;;;;;;5036214;28;20518;-76
2022/01/15 17:12:48;;;;;;;7.43;6.73;;;6.40;69.30;;;;;;5036259;28;20447;-76
2022/01/15 17:15:15;;;;;;;7.37;6.67;;;6.30;69.60;;;;;;5036168;28;20482;-76